sensor_id;sensor_type;location;lat;lon;timestamp;temperature;humidity
3488;DHT22;38546;48.170;11.724;2024-01-30T00:01:17;0.40;99.90
3488;DHT22;38546;48.170;11.724;2024-01-30T00:03:47;0.40;99.90
3488;DHT22;38546;48.170;11.724;2024-01-30T00:06:19;0.30;99.90
3488;DHT22;38546;48.170;11.724;2024-01-30T00:08:54;0.30;99.90
3488;DHT22;38546;48.170;11.724;2024-01-30T00:11:24;0.30;99.90
3488;DHT22;38546;48.170;11.724;2024-01-30T00:13:59;0.30;99.90
3488;DHT22;38546;48.170;11.724;2024-01-30T00:16:29;0.30;99.90
3488;DHT22;38546;48.170;11.724;2024-01-30T00:19:00;0.30;99.90
3488;DHT22;38546;48.170;11.724;2024-01-30T00:21:32;0.30;99.90
3488;DHT22;38546;48.170;11.724;2024-01-30T00:24:03;0.30;99.90
3488;DHT22;38546;48.170;11.724;2024-01-30T00:26:34;0.30;99.90
3488;DHT22;38546;48.170;11.724;2024-01-30T00:29:05;0.30;99.90
3488;DHT22;38546;48.170;11.724;2024-01-30T00:31:35;0.30;99.90
3488;DHT22;38546;48.170;11.724;2024-01-30T00:34:06;0.30;99.90
3488;DHT22;38546;48.170;11.724;2024-01-30T00:36:37;0.40;99.90
3488;DHT22;38546;48.170;11.724;2024-01-30T00:39:08;0.40;99.90
3488;DHT22;38546;48.170;11.724;2024-01-30T00:41:40;0.30;99.90
3488;DHT22;38546;48.170;11.724;2024-01-30T00:44:10;0.30;99.90
3488;DHT22;38546;48.170;11.724;2024-01-30T00:46:41;0.30;99.90
3488;DHT22;38546;48.170;11.724;2024-01-30T00:49:11;0.30;99.90
3488;DHT22;38546;48.170;11.724;2024-01-30T00:51:42;0.30;99.90
3488;DHT22;38546;48.170;11.724;2024-01-30T00:54:13;0.30;99.90
3488;DHT22;38546;48.170;11.724;2024-01-30T00:56:43;0.30;99.90
3488;DHT22;38546;48.170;11.724;2024-01-30T00:59:14;0.30;99.90
3488;DHT22;38546;48.170;11.724;2024-01-30T01:01:45;0.20;99.90
3488;DHT22;38546;48.170;11.724;2024-01-30T01:04:17;0.20;99.90
3488;DHT22;38546;48.170;11.724;2024-01-30T01:06:48;0.20;99.90
3488;DHT22;38546;48.170;11.724;2024-01-30T01:09:19;0.20;99.90
3488;DHT22;38546;48.170;11.724;2024-01-30T01:11:50;0.20;99.90
3488;DHT22;38546;48.170;11.724;2024-01-30T01:14:20;0.20;99.90
3488;DHT22;38546;48.170;11.724;2024-01-30T01:16:51;0.20;99.90
3488;DHT22;38546;48.170;11.724;2024-01-30T01:19:22;0.10;99.90
3488;DHT22;38546;48.170;11.724;2024-01-30T01:21:54;0.10;99.90
3488;DHT22;38546;48.170;11.724;2024-01-30T01:24:24;0.10;99.90
3488;DHT22;38546;48.170;11.724;2024-01-30T01:26:55;0.10;99.90
3488;DHT22;38546;48.170;11.724;2024-01-30T01:29:27;0.10;99.90
3488;DHT22;38546;48.170;11.724;2024-01-30T01:32:04;0.10;99.90
3488;DHT22;38546;48.170;11.724;2024-01-30T01:34:35;0.10;99.90
3488;DHT22;38546;48.170;11.724;2024-01-30T01:37:06;0.10;99.90
3488;DHT22;38546;48.170;11.724;2024-01-30T01:39:37;0.10;99.90
3488;DHT22;38546;48.170;11.724;2024-01-30T01:42:08;0.10;99.90
3488;DHT22;38546;48.170;11.724;2024-01-30T01:44:39;0.10;99.90
3488;DHT22;38546;48.170;11.724;2024-01-30T01:47:10;0.00;99.90
3488;DHT22;38546;48.170;11.724;2024-01-30T01:49:41;0.10;99.90
3488;DHT22;38546;48.170;11.724;2024-01-30T01:52:11;0.00;99.90
3488;DHT22;38546;48.170;11.724;2024-01-30T01:54:42;0.10;99.90
3488;DHT22;38546;48.170;11.724;2024-01-30T01:57:13;0.10;99.90
3488;DHT22;38546;48.170;11.724;2024-01-30T01:59:43;0.00;99.90
3488;DHT22;38546;48.170;11.724;2024-01-30T02:02:14;0.00;99.90
3488;DHT22;38546;48.170;11.724;2024-01-30T02:04:48;0.00;99.90
3488;DHT22;38546;48.170;11.724;2024-01-30T02:07:19;0.00;99.90
3488;DHT22;38546;48.170;11.724;2024-01-30T02:09:50;-0.10;99.90
3488;DHT22;38546;48.170;11.724;2024-01-30T02:12:21;-0.10;99.90
3488;DHT22;38546;48.170;11.724;2024-01-30T02:14:52;-0.10;99.90
3488;DHT22;38546;48.170;11.724;2024-01-30T02:17:23;-0.10;99.90
3488;DHT22;38546;48.170;11.724;2024-01-30T02:19:54;-0.10;99.90
3488;DHT22;38546;48.170;11.724;2024-01-30T02:22:25;-0.10;99.90
3488;DHT22;38546;48.170;11.724;2024-01-30T02:24:55;-0.20;99.90
3488;DHT22;38546;48.170;11.724;2024-01-30T02:27:26;-0.20;99.90
3488;DHT22;38546;48.170;11.724;2024-01-30T02:29:57;-0.20;99.90
3488;DHT22;38546;48.170;11.724;2024-01-30T02:32:27;-0.20;99.90
3488;DHT22;38546;48.170;11.724;2024-01-30T02:34:58;-0.20;99.90
3488;DHT22;38546;48.170;11.724;2024-01-30T02:37:29;-0.20;99.90
3488;DHT22;38546;48.170;11.724;2024-01-30T02:39:59;-0.20;99.90
3488;DHT22;38546;48.170;11.724;2024-01-30T02:42:30;-0.20;99.90
3488;DHT22;38546;48.170;11.724;2024-01-30T02:45:00;-0.20;99.90
3488;DHT22;38546;48.170;11.724;2024-01-30T02:47:31;-0.30;99.90
3488;DHT22;38546;48.170;11.724;2024-01-30T02:50:02;-0.30;99.90
3488;DHT22;38546;48.170;11.724;2024-01-30T02:52:33;-0.30;99.90
3488;DHT22;38546;48.170;11.724;2024-01-30T02:55:04;-0.30;99.90
3488;DHT22;38546;48.170;11.724;2024-01-30T02:57:36;-0.20;99.90
3488;DHT22;38546;48.170;11.724;2024-01-30T03:00:08;-0.20;99.90
3488;DHT22;38546;48.170;11.724;2024-01-30T03:02:39;-0.30;99.90
3488;DHT22;38546;48.170;11.724;2024-01-30T03:05:10;-0.30;99.90
3488;DHT22;38546;48.170;11.724;2024-01-30T03:07:41;-0.30;99.90
3488;DHT22;38546;48.170;11.724;2024-01-30T03:10:11;-0.30;99.90
3488;DHT22;38546;48.170;11.724;2024-01-30T03:12:42;-0.20;99.90
3488;DHT22;38546;48.170;11.724;2024-01-30T03:15:13;-0.20;99.90
3488;DHT22;38546;48.170;11.724;2024-01-30T03:17:43;-0.30;99.90
3488;DHT22;38546;48.170;11.724;2024-01-30T03:20:14;-0.30;99.90
3488;DHT22;38546;48.170;11.724;2024-01-30T03:22:45;-0.30;99.90
3488;DHT22;38546;48.170;11.724;2024-01-30T03:25:15;-0.30;99.90
3488;DHT22;38546;48.170;11.724;2024-01-30T03:27:46;-0.30;99.90
3488;DHT22;38546;48.170;11.724;2024-01-30T03:30:17;-0.30;99.90
3488;DHT22;38546;48.170;11.724;2024-01-30T03:32:48;-0.20;99.90
3488;DHT22;38546;48.170;11.724;2024-01-30T03:35:19;-0.20;99.90
3488;DHT22;38546;48.170;11.724;2024-01-30T03:37:49;-0.20;99.90
3488;DHT22;38546;48.170;11.724;2024-01-30T03:40:20;-0.20;99.90
3488;DHT22;38546;48.170;11.724;2024-01-30T03:42:51;-0.20;99.90
3488;DHT22;38546;48.170;11.724;2024-01-30T03:45:21;-0.20;99.90
3488;DHT22;38546;48.170;11.724;2024-01-30T03:47:52;-0.20;99.90
3488;DHT22;38546;48.170;11.724;2024-01-30T03:50:22;-0.20;99.90
3488;DHT22;38546;48.170;11.724;2024-01-30T03:52:53;-0.30;99.90
3488;DHT22;38546;48.170;11.724;2024-01-30T03:55:24;-0.30;99.90
3488;DHT22;38546;48.170;11.724;2024-01-30T03:57:55;-0.30;99.90
3488;DHT22;38546;48.170;11.724;2024-01-30T04:00:25;-0.30;99.90
3488;DHT22;38546;48.170;11.724;2024-01-30T04:02:56;-0.30;99.90
3488;DHT22;38546;48.170;11.724;2024-01-30T04:05:27;-0.30;99.90
3488;DHT22;38546;48.170;11.724;2024-01-30T04:07:57;-0.30;99.90
3488;DHT22;38546;48.170;11.724;2024-01-30T04:10:29;-0.30;99.90
3488;DHT22;38546;48.170;11.724;2024-01-30T04:12:59;-0.30;99.90
3488;DHT22;38546;48.170;11.724;2024-01-30T04:15:30;-0.30;99.90
3488;DHT22;38546;48.170;11.724;2024-01-30T04:18:01;-0.30;99.90
3488;DHT22;38546;48.170;11.724;2024-01-30T04:20:31;-0.30;99.90
3488;DHT22;38546;48.170;11.724;2024-01-30T04:23:02;-0.20;99.90
3488;DHT22;38546;48.170;11.724;2024-01-30T04:25:33;-0.30;99.90
3488;DHT22;38546;48.170;11.724;2024-01-30T04:28:04;-0.30;99.90
3488;DHT22;38546;48.170;11.724;2024-01-30T04:30:35;-0.30;99.90
3488;DHT22;38546;48.170;11.724;2024-01-30T04:33:06;-0.30;99.90
3488;DHT22;38546;48.170;11.724;2024-01-30T04:35:36;-0.20;99.90
3488;DHT22;38546;48.170;11.724;2024-01-30T04:38:07;-0.20;99.90
3488;DHT22;38546;48.170;11.724;2024-01-30T04:40:37;-0.20;99.90
3488;DHT22;38546;48.170;11.724;2024-01-30T04:43:08;-0.20;99.90
3488;DHT22;38546;48.170;11.724;2024-01-30T04:45:39;-0.20;99.90
3488;DHT22;38546;48.170;11.724;2024-01-30T04:48:09;-0.20;99.90
3488;DHT22;38546;48.170;11.724;2024-01-30T04:50:40;-0.20;99.90
3488;DHT22;38546;48.170;11.724;2024-01-30T04:53:11;-0.20;99.90
3488;DHT22;38546;48.170;11.724;2024-01-30T04:55:43;-0.20;99.90
3488;DHT22;38546;48.170;11.724;2024-01-30T04:58:13;-0.20;99.90
3488;DHT22;38546;48.170;11.724;2024-01-30T05:00:44;-0.20;99.90
3488;DHT22;38546;48.170;11.724;2024-01-30T05:03:16;-0.20;99.90
3488;DHT22;38546;48.170;11.724;2024-01-30T05:05:48;-0.10;99.90
3488;DHT22;38546;48.170;11.724;2024-01-30T05:08:18;-0.10;99.90
3488;DHT22;38546;48.170;11.724;2024-01-30T05:10:49;-0.20;99.90
3488;DHT22;38546;48.170;11.724;2024-01-30T05:13:20;-0.20;99.90
3488;DHT22;38546;48.170;11.724;2024-01-30T05:15:50;-0.20;99.90
3488;DHT22;38546;48.170;11.724;2024-01-30T05:18:21;-0.20;99.90
3488;DHT22;38546;48.170;11.724;2024-01-30T05:20:52;-0.20;99.90
3488;DHT22;38546;48.170;11.724;2024-01-30T05:23:22;-0.30;99.90
3488;DHT22;38546;48.170;11.724;2024-01-30T05:25:53;-0.30;99.90
3488;DHT22;38546;48.170;11.724;2024-01-30T05:28:24;-0.30;99.90
3488;DHT22;38546;48.170;11.724;2024-01-30T05:30:56;-0.30;99.90
3488;DHT22;38546;48.170;11.724;2024-01-30T05:33:28;-0.30;99.90
3488;DHT22;38546;48.170;11.724;2024-01-30T05:35:58;-0.30;99.90
3488;DHT22;38546;48.170;11.724;2024-01-30T05:38:29;-0.30;99.90
3488;DHT22;38546;48.170;11.724;2024-01-30T05:41:00;-0.30;99.90
3488;DHT22;38546;48.170;11.724;2024-01-30T05:43:31;-0.30;99.90
3488;DHT22;38546;48.170;11.724;2024-01-30T05:46:02;-0.30;99.90
3488;DHT22;38546;48.170;11.724;2024-01-30T05:48:32;-0.40;99.90
3488;DHT22;38546;48.170;11.724;2024-01-30T05:51:03;-0.40;99.90
3488;DHT22;38546;48.170;11.724;2024-01-30T05:53:34;-0.40;99.90
3488;DHT22;38546;48.170;11.724;2024-01-30T05:56:06;-0.40;99.90
3488;DHT22;38546;48.170;11.724;2024-01-30T05:58:37;-0.50;99.90
3488;DHT22;38546;48.170;11.724;2024-01-30T06:01:08;-0.50;99.90
3488;DHT22;38546;48.170;11.724;2024-01-30T06:03:39;-0.50;99.90
3488;DHT22;38546;48.170;11.724;2024-01-30T06:06:09;-0.50;99.90
3488;DHT22;38546;48.170;11.724;2024-01-30T06:08:40;-0.50;99.90
3488;DHT22;38546;48.170;11.724;2024-01-30T06:11:11;-0.60;99.90
3488;DHT22;38546;48.170;11.724;2024-01-30T06:13:42;-0.60;99.90
3488;DHT22;38546;48.170;11.724;2024-01-30T06:16:13;-0.60;99.90
3488;DHT22;38546;48.170;11.724;2024-01-30T06:18:46;-0.60;99.90
3488;DHT22;38546;48.170;11.724;2024-01-30T06:21:18;-0.60;99.90
3488;DHT22;38546;48.170;11.724;2024-01-30T06:23:48;-0.60;99.90
3488;DHT22;38546;48.170;11.724;2024-01-30T06:26:19;-0.70;99.90
3488;DHT22;38546;48.170;11.724;2024-01-30T06:28:50;-0.70;99.90
3488;DHT22;38546;48.170;11.724;2024-01-30T06:31:20;-0.70;99.90
3488;DHT22;38546;48.170;11.724;2024-01-30T06:33:51;-0.80;99.90
3488;DHT22;38546;48.170;11.724;2024-01-30T06:36:22;-0.80;99.90
3488;DHT22;38546;48.170;11.724;2024-01-30T06:38:53;-0.80;99.90
3488;DHT22;38546;48.170;11.724;2024-01-30T06:41:23;-0.80;99.90
3488;DHT22;38546;48.170;11.724;2024-01-30T06:43:54;-0.80;99.90
3488;DHT22;38546;48.170;11.724;2024-01-30T06:46:24;-0.80;99.90
3488;DHT22;38546;48.170;11.724;2024-01-30T06:48:55;-0.80;99.90
3488;DHT22;38546;48.170;11.724;2024-01-30T06:51:26;-0.70;99.90
3488;DHT22;38546;48.170;11.724;2024-01-30T06:53:56;-0.70;99.90
3488;DHT22;38546;48.170;11.724;2024-01-30T06:56:28;-0.60;99.90
3488;DHT22;38546;48.170;11.724;2024-01-30T06:58:58;-0.60;99.90
3488;DHT22;38546;48.170;11.724;2024-01-30T07:01:29;-0.60;99.90
3488;DHT22;38546;48.170;11.724;2024-01-30T07:04:00;-0.60;99.90
3488;DHT22;38546;48.170;11.724;2024-01-30T07:06:31;-0.50;99.90
3488;DHT22;38546;48.170;11.724;2024-01-30T07:09:01;-0.50;99.90
3488;DHT22;38546;48.170;11.724;2024-01-30T07:11:33;-0.50;99.90
3488;DHT22;38546;48.170;11.724;2024-01-30T07:14:04;-0.40;99.90
3488;DHT22;38546;48.170;11.724;2024-01-30T07:16:35;-0.30;99.90
3488;DHT22;38546;48.170;11.724;2024-01-30T07:19:05;-0.30;99.90
3488;DHT22;38546;48.170;11.724;2024-01-30T07:21:36;-0.20;99.90
3488;DHT22;38546;48.170;11.724;2024-01-30T07:24:07;-0.20;99.90
3488;DHT22;38546;48.170;11.724;2024-01-30T07:26:37;-0.10;99.90
3488;DHT22;38546;48.170;11.724;2024-01-30T07:29:08;0.00;99.90
3488;DHT22;38546;48.170;11.724;2024-01-30T07:31:38;0.10;99.90
3488;DHT22;38546;48.170;11.724;2024-01-30T07:34:10;0.20;99.90
3488;DHT22;38546;48.170;11.724;2024-01-30T07:36:41;0.30;99.90
3488;DHT22;38546;48.170;11.724;2024-01-30T07:39:11;0.40;99.90
3488;DHT22;38546;48.170;11.724;2024-01-30T07:41:42;0.50;99.90
3488;DHT22;38546;48.170;11.724;2024-01-30T07:44:13;0.60;99.90
3488;DHT22;38546;48.170;11.724;2024-01-30T07:46:43;0.80;99.90
3488;DHT22;38546;48.170;11.724;2024-01-30T07:49:14;0.90;99.90
3488;DHT22;38546;48.170;11.724;2024-01-30T07:51:45;1.00;99.90
3488;DHT22;38546;48.170;11.724;2024-01-30T07:54:16;1.10;99.90
3488;DHT22;38546;48.170;11.724;2024-01-30T07:56:46;1.20;99.90
3488;DHT22;38546;48.170;11.724;2024-01-30T07:59:17;1.30;99.90
3488;DHT22;38546;48.170;11.724;2024-01-30T08:01:50;1.40;99.90
3488;DHT22;38546;48.170;11.724;2024-01-30T08:04:21;1.60;99.90
3488;DHT22;38546;48.170;11.724;2024-01-30T08:06:52;1.70;99.90
3488;DHT22;38546;48.170;11.724;2024-01-30T08:09:22;1.80;99.90
3488;DHT22;38546;48.170;11.724;2024-01-30T08:11:53;2.00;99.90
3488;DHT22;38546;48.170;11.724;2024-01-30T08:14:24;2.00;99.90
3488;DHT22;38546;48.170;11.724;2024-01-30T08:16:56;2.20;99.90
3488;DHT22;38546;48.170;11.724;2024-01-30T08:19:27;2.30;99.90
3488;DHT22;38546;48.170;11.724;2024-01-30T08:21:57;2.40;99.90
3488;DHT22;38546;48.170;11.724;2024-01-30T08:24:28;2.60;99.90
3488;DHT22;38546;48.170;11.724;2024-01-30T08:26:58;2.70;99.90
3488;DHT22;38546;48.170;11.724;2024-01-30T08:29:31;2.90;99.90
3488;DHT22;38546;48.170;11.724;2024-01-30T08:32:02;3.00;99.90
3488;DHT22;38546;48.170;11.724;2024-01-30T08:34:33;3.20;99.90
3488;DHT22;38546;48.170;11.724;2024-01-30T08:37:04;3.30;99.90
3488;DHT22;38546;48.170;11.724;2024-01-30T08:39:35;3.40;99.90
3488;DHT22;38546;48.170;11.724;2024-01-30T08:42:05;3.60;99.90
3488;DHT22;38546;48.170;11.724;2024-01-30T08:44:36;3.70;99.90
3488;DHT22;38546;48.170;11.724;2024-01-30T08:47:06;3.90;99.90
3488;DHT22;38546;48.170;11.724;2024-01-30T08:49:37;4.00;99.90
3488;DHT22;38546;48.170;11.724;2024-01-30T08:52:08;4.10;99.90
3488;DHT22;38546;48.170;11.724;2024-01-30T08:54:38;4.20;99.90
3488;DHT22;38546;48.170;11.724;2024-01-30T08:57:09;4.30;99.90
3488;DHT22;38546;48.170;11.724;2024-01-30T08:59:41;4.40;99.90
3488;DHT22;38546;48.170;11.724;2024-01-30T09:02:16;4.50;99.90
3488;DHT22;38546;48.170;11.724;2024-01-30T09:04:48;4.60;99.90
3488;DHT22;38546;48.170;11.724;2024-01-30T09:07:19;4.70;99.90
3488;DHT22;38546;48.170;11.724;2024-01-30T09:09:49;4.80;99.90
3488;DHT22;38546;48.170;11.724;2024-01-30T09:12:20;5.00;99.90
3488;DHT22;38546;48.170;11.724;2024-01-30T09:14:51;5.20;99.90
3488;DHT22;38546;48.170;11.724;2024-01-30T09:17:21;5.30;99.90
3488;DHT22;38546;48.170;11.724;2024-01-30T09:19:52;5.50;99.90
3488;DHT22;38546;48.170;11.724;2024-01-30T09:22:22;5.70;99.90
3488;DHT22;38546;48.170;11.724;2024-01-30T09:24:53;5.90;99.90
3488;DHT22;38546;48.170;11.724;2024-01-30T09:27:24;6.10;99.90
3488;DHT22;38546;48.170;11.724;2024-01-30T09:29:55;6.20;99.90
3488;DHT22;38546;48.170;11.724;2024-01-30T09:32:25;6.40;99.90
3488;DHT22;38546;48.170;11.724;2024-01-30T09:34:56;6.60;99.90
3488;DHT22;38546;48.170;11.724;2024-01-30T09:37:27;6.70;99.90
3488;DHT22;38546;48.170;11.724;2024-01-30T09:39:58;6.90;99.90
3488;DHT22;38546;48.170;11.724;2024-01-30T09:42:35;7.10;99.90
3488;DHT22;38546;48.170;11.724;2024-01-30T09:45:06;7.30;99.90
3488;DHT22;38546;48.170;11.724;2024-01-30T09:47:44;7.40;99.90
3488;DHT22;38546;48.170;11.724;2024-01-30T09:50:15;7.60;99.90
3488;DHT22;38546;48.170;11.724;2024-01-30T09:52:47;7.70;99.90
3488;DHT22;38546;48.170;11.724;2024-01-30T09:55:18;7.90;99.90
3488;DHT22;38546;48.170;11.724;2024-01-30T09:57:49;8.00;99.90
3488;DHT22;38546;48.170;11.724;2024-01-30T10:00:19;8.20;99.90
3488;DHT22;38546;48.170;11.724;2024-01-30T10:02:50;8.30;99.90
3488;DHT22;38546;48.170;11.724;2024-01-30T10:05:26;8.40;99.90
3488;DHT22;38546;48.170;11.724;2024-01-30T10:07:59;8.50;99.90
3488;DHT22;38546;48.170;11.724;2024-01-30T10:10:29;8.60;99.90
3488;DHT22;38546;48.170;11.724;2024-01-30T10:13:00;8.70;99.90
3488;DHT22;38546;48.170;11.724;2024-01-30T10:15:31;8.80;99.90
3488;DHT22;38546;48.170;11.724;2024-01-30T10:18:02;8.90;99.90
3488;DHT22;38546;48.170;11.724;2024-01-30T10:20:34;8.90;99.90
3488;DHT22;38546;48.170;11.724;2024-01-30T10:23:04;9.00;99.90
3488;DHT22;38546;48.170;11.724;2024-01-30T10:25:35;9.10;99.90
3488;DHT22;38546;48.170;11.724;2024-01-30T10:28:06;9.20;99.90
3488;DHT22;38546;48.170;11.724;2024-01-30T10:30:37;9.20;99.90
3488;DHT22;38546;48.170;11.724;2024-01-30T10:33:10;9.20;99.90
3488;DHT22;38546;48.170;11.724;2024-01-30T10:35:41;9.30;99.90
3488;DHT22;38546;48.170;11.724;2024-01-30T10:38:13;9.30;99.90
3488;DHT22;38546;48.170;11.724;2024-01-30T10:40:48;9.20;99.90
3488;DHT22;38546;48.170;11.724;2024-01-30T10:43:22;9.20;99.90
3488;DHT22;38546;48.170;11.724;2024-01-30T10:45:53;9.10;99.90
3488;DHT22;38546;48.170;11.724;2024-01-30T10:48:30;9.10;99.90
3488;DHT22;38546;48.170;11.724;2024-01-30T10:51:02;9.10;99.90
3488;DHT22;38546;48.170;11.724;2024-01-30T10:53:34;9.00;99.90
3488;DHT22;38546;48.170;11.724;2024-01-30T10:56:05;9.00;99.90
3488;DHT22;38546;48.170;11.724;2024-01-30T10:58:37;9.00;99.90
3488;DHT22;38546;48.170;11.724;2024-01-30T11:01:09;9.00;99.90
3488;DHT22;38546;48.170;11.724;2024-01-30T11:03:40;9.10;99.90
3488;DHT22;38546;48.170;11.724;2024-01-30T11:06:11;9.00;99.90
3488;DHT22;38546;48.170;11.724;2024-01-30T11:08:45;8.90;99.90
3488;DHT22;38546;48.170;11.724;2024-01-30T11:11:16;8.90;99.90
3488;DHT22;38546;48.170;11.724;2024-01-30T11:13:50;8.80;99.90
3488;DHT22;38546;48.170;11.724;2024-01-30T11:16:20;8.80;99.90
3488;DHT22;38546;48.170;11.724;2024-01-30T11:18:51;8.70;99.90
3488;DHT22;38546;48.170;11.724;2024-01-30T11:21:25;8.60;99.90
3488;DHT22;38546;48.170;11.724;2024-01-30T11:23:56;8.70;99.90
3488;DHT22;38546;48.170;11.724;2024-01-30T11:26:31;8.70;99.90
3488;DHT22;38546;48.170;11.724;2024-01-30T11:29:07;8.70;99.90
3488;DHT22;38546;48.170;11.724;2024-01-30T11:31:38;8.80;99.90
3488;DHT22;38546;48.170;11.724;2024-01-30T11:34:09;8.80;99.90
3488;DHT22;38546;48.170;11.724;2024-01-30T11:36:43;9.00;99.90
3488;DHT22;38546;48.170;11.724;2024-01-30T11:39:15;9.00;99.90
3488;DHT22;38546;48.170;11.724;2024-01-30T11:41:50;9.10;99.90
3488;DHT22;38546;48.170;11.724;2024-01-30T11:44:23;9.20;99.90
3488;DHT22;38546;48.170;11.724;2024-01-30T11:46:53;9.20;99.90
3488;DHT22;38546;48.170;11.724;2024-01-30T11:49:24;9.30;99.90
3488;DHT22;38546;48.170;11.724;2024-01-30T11:51:55;9.30;99.90
3488;DHT22;38546;48.170;11.724;2024-01-30T11:54:25;9.40;99.90
3488;DHT22;38546;48.170;11.724;2024-01-30T11:56:56;9.50;99.90
3488;DHT22;38546;48.170;11.724;2024-01-30T11:59:26;9.50;99.90
3488;DHT22;38546;48.170;11.724;2024-01-30T12:01:57;9.60;99.90
3488;DHT22;38546;48.170;11.724;2024-01-30T12:04:31;9.70;99.90
3488;DHT22;38546;48.170;11.724;2024-01-30T12:07:02;9.80;99.90
3488;DHT22;38546;48.170;11.724;2024-01-30T12:09:32;9.80;99.90
3488;DHT22;38546;48.170;11.724;2024-01-30T12:12:03;9.80;99.90
3488;DHT22;38546;48.170;11.724;2024-01-30T12:14:36;9.90;99.90
3488;DHT22;38546;48.170;11.724;2024-01-30T12:17:06;9.90;99.90
3488;DHT22;38546;48.170;11.724;2024-01-30T12:19:39;9.90;99.90
3488;DHT22;38546;48.170;11.724;2024-01-30T12:22:10;10.00;99.90
3488;DHT22;38546;48.170;11.724;2024-01-30T12:24:41;10.10;99.90
3488;DHT22;38546;48.170;11.724;2024-01-30T12:27:15;10.20;99.90
3488;DHT22;38546;48.170;11.724;2024-01-30T12:29:46;10.30;99.90
3488;DHT22;38546;48.170;11.724;2024-01-30T12:32:16;10.40;99.90
3488;DHT22;38546;48.170;11.724;2024-01-30T12:34:47;10.50;99.90
3488;DHT22;38546;48.170;11.724;2024-01-30T12:37:18;10.50;99.90
3488;DHT22;38546;48.170;11.724;2024-01-30T12:39:52;10.50;99.90
3488;DHT22;38546;48.170;11.724;2024-01-30T12:42:24;10.60;99.90
3488;DHT22;38546;48.170;11.724;2024-01-30T12:44:57;10.60;99.90
3488;DHT22;38546;48.170;11.724;2024-01-30T12:47:32;10.70;99.90
3488;DHT22;38546;48.170;11.724;2024-01-30T12:50:03;10.70;99.90
3488;DHT22;38546;48.170;11.724;2024-01-30T12:52:35;10.80;99.90
3488;DHT22;38546;48.170;11.724;2024-01-30T12:55:06;10.80;99.90
3488;DHT22;38546;48.170;11.724;2024-01-30T12:57:37;10.90;99.90
3488;DHT22;38546;48.170;11.724;2024-01-30T13:00:10;10.90;99.90
3488;DHT22;38546;48.170;11.724;2024-01-30T13:02:41;11.00;99.90
3488;DHT22;38546;48.170;11.724;2024-01-30T13:05:15;11.00;99.90
3488;DHT22;38546;48.170;11.724;2024-01-30T13:07:46;11.10;99.90
3488;DHT22;38546;48.170;11.724;2024-01-30T13:10:16;11.20;99.90
3488;DHT22;38546;48.170;11.724;2024-01-30T13:12:47;11.30;99.90
3488;DHT22;38546;48.170;11.724;2024-01-30T13:15:18;11.30;99.90
3488;DHT22;38546;48.170;11.724;2024-01-30T13:17:49;11.40;99.90
3488;DHT22;38546;48.170;11.724;2024-01-30T13:20:20;11.40;99.90
3488;DHT22;38546;48.170;11.724;2024-01-30T13:22:51;11.50;99.90
3488;DHT22;38546;48.170;11.724;2024-01-30T13:25:22;11.50;99.90
3488;DHT22;38546;48.170;11.724;2024-01-30T13:27:53;11.60;99.90
3488;DHT22;38546;48.170;11.724;2024-01-30T13:30:24;11.60;99.90
3488;DHT22;38546;48.170;11.724;2024-01-30T13:32:54;11.70;99.90
3488;DHT22;38546;48.170;11.724;2024-01-30T13:35:25;11.80;99.90
3488;DHT22;38546;48.170;11.724;2024-01-30T13:37:59;11.90;99.90
3488;DHT22;38546;48.170;11.724;2024-01-30T13:40:30;12.00;99.90
3488;DHT22;38546;48.170;11.724;2024-01-30T13:43:00;12.00;99.90
3488;DHT22;38546;48.170;11.724;2024-01-30T13:45:31;12.10;99.90
3488;DHT22;38546;48.170;11.724;2024-01-30T13:48:02;12.20;99.90
3488;DHT22;38546;48.170;11.724;2024-01-30T13:50:33;12.30;99.90
3488;DHT22;38546;48.170;11.724;2024-01-30T13:53:04;12.30;99.90
3488;DHT22;38546;48.170;11.724;2024-01-30T13:55:35;12.20;99.90
3488;DHT22;38546;48.170;11.724;2024-01-30T13:58:06;12.10;99.90
3488;DHT22;38546;48.170;11.724;2024-01-30T14:00:36;12.10;99.90
3488;DHT22;38546;48.170;11.724;2024-01-30T14:03:07;12.00;99.90
3488;DHT22;38546;48.170;11.724;2024-01-30T14:05:38;12.30;99.90
3488;DHT22;38546;48.170;11.724;2024-01-30T14:08:08;12.20;99.90
3488;DHT22;38546;48.170;11.724;2024-01-30T14:10:39;12.00;99.90
3488;DHT22;38546;48.170;11.724;2024-01-30T14:13:10;11.80;99.90
3488;DHT22;38546;48.170;11.724;2024-01-30T14:15:42;11.70;99.90
3488;DHT22;38546;48.170;11.724;2024-01-30T14:18:12;11.60;99.90
3488;DHT22;38546;48.170;11.724;2024-01-30T14:20:43;11.60;99.90
3488;DHT22;38546;48.170;11.724;2024-01-30T14:23:16;11.60;99.90
3488;DHT22;38546;48.170;11.724;2024-01-30T14:25:47;11.70;99.90
3488;DHT22;38546;48.170;11.724;2024-01-30T14:28:18;11.70;99.90
3488;DHT22;38546;48.170;11.724;2024-01-30T14:30:49;11.60;99.90
3488;DHT22;38546;48.170;11.724;2024-01-30T14:33:19;11.50;99.90
3488;DHT22;38546;48.170;11.724;2024-01-30T14:35:50;11.40;99.90
3488;DHT22;38546;48.170;11.724;2024-01-30T14:38:21;11.40;99.90
3488;DHT22;38546;48.170;11.724;2024-01-30T14:40:51;11.30;99.90
3488;DHT22;38546;48.170;11.724;2024-01-30T14:43:22;11.20;99.90
3488;DHT22;38546;48.170;11.724;2024-01-30T14:45:53;11.20;99.90
3488;DHT22;38546;48.170;11.724;2024-01-30T14:48:24;11.30;99.90
3488;DHT22;38546;48.170;11.724;2024-01-30T14:50:54;11.10;99.90
3488;DHT22;38546;48.170;11.724;2024-01-30T14:53:25;11.10;99.90
3488;DHT22;38546;48.170;11.724;2024-01-30T14:55:56;11.10;99.90
3488;DHT22;38546;48.170;11.724;2024-01-30T14:58:26;11.00;99.90
3488;DHT22;38546;48.170;11.724;2024-01-30T15:00:57;10.80;99.90
3488;DHT22;38546;48.170;11.724;2024-01-30T15:03:28;10.80;99.90
3488;DHT22;38546;48.170;11.724;2024-01-30T15:05:59;10.70;99.90
3488;DHT22;38546;48.170;11.724;2024-01-30T15:08:30;10.60;99.90
3488;DHT22;38546;48.170;11.724;2024-01-30T15:11:01;10.50;99.90
3488;DHT22;38546;48.170;11.724;2024-01-30T15:13:34;10.50;99.90
3488;DHT22;38546;48.170;11.724;2024-01-30T15:16:05;10.40;99.90
3488;DHT22;38546;48.170;11.724;2024-01-30T15:18:36;10.30;99.90
3488;DHT22;38546;48.170;11.724;2024-01-30T15:21:07;10.30;99.90
3488;DHT22;38546;48.170;11.724;2024-01-30T15:23:37;10.20;99.90
3488;DHT22;38546;48.170;11.724;2024-01-30T15:26:08;10.20;99.90
3488;DHT22;38546;48.170;11.724;2024-01-30T15:28:39;10.20;99.90
3488;DHT22;38546;48.170;11.724;2024-01-30T15:31:10;10.10;99.90
3488;DHT22;38546;48.170;11.724;2024-01-30T15:33:40;10.10;99.90
3488;DHT22;38546;48.170;11.724;2024-01-30T15:36:13;10.00;99.90
3488;DHT22;38546;48.170;11.724;2024-01-30T15:38:46;10.00;99.90
3488;DHT22;38546;48.170;11.724;2024-01-30T15:41:17;9.90;99.90
3488;DHT22;38546;48.170;11.724;2024-01-30T15:43:48;9.90;99.90
3488;DHT22;38546;48.170;11.724;2024-01-30T15:46:18;9.70;99.90
3488;DHT22;38546;48.170;11.724;2024-01-30T15:48:49;9.60;99.90
3488;DHT22;38546;48.170;11.724;2024-01-30T15:51:19;9.50;99.90
3488;DHT22;38546;48.170;11.724;2024-01-30T15:53:50;9.40;99.90
3488;DHT22;38546;48.170;11.724;2024-01-30T15:56:22;9.30;99.90
3488;DHT22;38546;48.170;11.724;2024-01-30T15:58:53;9.10;99.90
3488;DHT22;38546;48.170;11.724;2024-01-30T16:01:23;9.00;99.90